sensor_id;sensor_type;location;lat;lon;timestamp;P1;durP1;ratioP1;P2;durP2;ratioP2
41897;SDS011;27576;53.366;-1.498;2023-03-12T00:00:14;17.42;;;15.02;;
41897;SDS011;27576;53.366;-1.498;2023-03-12T00:02:40;18.23;;;15.05;;
41897;SDS011;27576;53.366;-1.498;2023-03-12T00:05:05;17.48;;;14.60;;
41897;SDS011;27576;53.366;-1.498;2023-03-12T00:07:31;16.10;;;13.90;;
41897;SDS011;27576;53.366;-1.498;2023-03-12T00:09:57;16.50;;;14.18;;
41897;SDS011;27576;53.366;-1.498;2023-03-12T00:12:22;17.92;;;14.55;;
41897;SDS011;27576;53.366;-1.498;2023-03-12T00:14:47;19.98;;;15.63;;
41897;SDS011;27576;53.366;-1.498;2023-03-12T00:17:13;19.17;;;14.80;;
41897;SDS011;27576;53.366;-1.498;2023-03-12T00:19:38;20.42;;;17.40;;
41897;SDS011;27576;53.366;-1.498;2023-03-12T00:22:03;18.52;;;16.05;;
41897;SDS011;27576;53.366;-1.498;2023-03-12T00:24:29;19.63;;;15.40;;
41897;SDS011;27576;53.366;-1.498;2023-03-12T00:26:54;16.52;;;14.20;;
41897;SDS011;27576;53.366;-1.498;2023-03-12T00:29:20;21.45;;;17.40;;
41897;SDS011;27576;53.366;-1.498;2023-03-12T00:31:45;20.27;;;17.45;;
41897;SDS011;27576;53.366;-1.498;2023-03-12T00:34:11;17.42;;;14.68;;
41897;SDS011;27576;53.366;-1.498;2023-03-12T00:36:36;18.27;;;15.48;;
41897;SDS011;27576;53.366;-1.498;2023-03-12T00:39:02;17.60;;;14.93;;
41897;SDS011;27576;53.366;-1.498;2023-03-12T00:41:28;19.63;;;15.40;;
41897;SDS011;27576;53.366;-1.498;2023-03-12T00:43:54;17.17;;;14.40;;
41897;SDS011;27576;53.366;-1.498;2023-03-12T00:46:20;15.00;;;12.95;;
41897;SDS011;27576;53.366;-1.498;2023-03-12T00:48:46;15.50;;;12.45;;
41897;SDS011;27576;53.366;-1.498;2023-03-12T00:51:11;16.23;;;13.23;;
41897;SDS011;27576;53.366;-1.498;2023-03-12T00:53:37;14.93;;;12.10;;
41897;SDS011;27576;53.366;-1.498;2023-03-12T00:56:03;12.98;;;10.95;;
41897;SDS011;27576;53.366;-1.498;2023-03-12T00:58:29;11.85;;;10.57;;
41897;SDS011;27576;53.366;-1.498;2023-03-12T01:00:55;13.98;;;10.80;;
41897;SDS011;27576;53.366;-1.498;2023-03-12T01:03:20;12.00;;;10.30;;
41897;SDS011;27576;53.366;-1.498;2023-03-12T01:05:45;11.63;;;10.02;;
41897;SDS011;27576;53.366;-1.498;2023-03-12T01:08:13;11.05;;;9.85;;
41897;SDS011;27576;53.366;-1.498;2023-03-12T01:10:40;10.40;;;9.18;;
41897;SDS011;27576;53.366;-1.498;2023-03-12T01:13:07;12.13;;;10.63;;
41897;SDS011;27576;53.366;-1.498;2023-03-12T01:15:32;13.05;;;10.73;;
41897;SDS011;27576;53.366;-1.498;2023-03-12T01:17:58;12.98;;;11.05;;
41897;SDS011;27576;53.366;-1.498;2023-03-12T01:20:23;13.48;;;10.45;;
41897;SDS011;27576;53.366;-1.498;2023-03-12T01:22:49;13.30;;;10.95;;
41897;SDS011;27576;53.366;-1.498;2023-03-12T01:25:15;12.57;;;10.60;;
41897;SDS011;27576;53.366;-1.498;2023-03-12T01:27:40;15.07;;;11.50;;
41897;SDS011;27576;53.366;-1.498;2023-03-12T01:30:05;15.02;;;11.63;;
41897;SDS011;27576;53.366;-1.498;2023-03-12T01:32:31;13.82;;;11.23;;
41897;SDS011;27576;53.366;-1.498;2023-03-12T01:34:57;13.60;;;10.60;;
41897;SDS011;27576;53.366;-1.498;2023-03-12T01:37:24;10.68;;;9.55;;
41897;SDS011;27576;53.366;-1.498;2023-03-12T01:39:50;11.32;;;9.68;;
41897;SDS011;27576;53.366;-1.498;2023-03-12T01:42:15;11.32;;;9.77;;
41897;SDS011;27576;53.366;-1.498;2023-03-12T01:44:51;11.45;;;9.35;;
41897;SDS011;27576;53.366;-1.498;2023-03-12T01:47:27;10.63;;;8.82;;
41897;SDS011;27576;53.366;-1.498;2023-03-12T01:49:56;12.88;;;9.88;;
41897;SDS011;27576;53.366;-1.498;2023-03-12T01:54:56;10.38;;;8.95;;
41897;SDS011;27576;53.366;-1.498;2023-03-12T01:57:30;10.88;;;8.95;;
41897;SDS011;27576;53.366;-1.498;2023-03-12T02:00:13;11.43;;;9.77;;
41897;SDS011;27576;53.366;-1.498;2023-03-12T02:02:41;12.27;;;9.77;;
41897;SDS011;27576;53.366;-1.498;2023-03-12T02:07:37;13.40;;;10.45;;
41897;SDS011;27576;53.366;-1.498;2023-03-12T02:10:02;13.52;;;10.65;;
41897;SDS011;27576;53.366;-1.498;2023-03-12T02:12:29;13.85;;;11.07;;
41897;SDS011;27576;53.366;-1.498;2023-03-12T02:14:55;11.43;;;9.80;;
41897;SDS011;27576;53.366;-1.498;2023-03-12T02:17:20;10.02;;;8.77;;
41897;SDS011;27576;53.366;-1.498;2023-03-12T02:22:20;12.43;;;10.15;;
41897;SDS011;27576;53.366;-1.498;2023-03-12T02:24:53;10.77;;;9.40;;
41897;SDS011;27576;53.366;-1.498;2023-03-12T02:27:42;15.48;;;11.40;;
41897;SDS011;27576;53.366;-1.498;2023-03-12T02:30:09;13.27;;;10.32;;
41897;SDS011;27576;53.366;-1.498;2023-03-12T02:32:39;14.32;;;10.98;;
41897;SDS011;27576;53.366;-1.498;2023-03-12T02:35:05;14.55;;;10.65;;
41897;SDS011;27576;53.366;-1.498;2023-03-12T02:37:30;12.18;;;9.70;;
41897;SDS011;27576;53.366;-1.498;2023-03-12T02:40:08;13.15;;;11.25;;
41897;SDS011;27576;53.366;-1.498;2023-03-12T02:42:39;17.55;;;11.85;;
41897;SDS011;27576;53.366;-1.498;2023-03-12T02:45:05;15.05;;;10.48;;
41897;SDS011;27576;53.366;-1.498;2023-03-12T02:47:31;16.25;;;11.95;;
41897;SDS011;27576;53.366;-1.498;2023-03-12T02:49:56;15.85;;;11.93;;
41897;SDS011;27576;53.366;-1.498;2023-03-12T02:52:21;16.38;;;11.80;;
41897;SDS011;27576;53.366;-1.498;2023-03-12T02:54:47;17.42;;;11.63;;
41897;SDS011;27576;53.366;-1.498;2023-03-12T02:57:12;20.50;;;12.68;;
41897;SDS011;27576;53.366;-1.498;2023-03-12T02:59:37;15.00;;;11.90;;
41897;SDS011;27576;53.366;-1.498;2023-03-12T03:02:03;17.52;;;13.20;;
41897;SDS011;27576;53.366;-1.498;2023-03-12T03:04:29;18.33;;;13.25;;
41897;SDS011;27576;53.366;-1.498;2023-03-12T03:06:55;21.00;;;13.60;;
41897;SDS011;27576;53.366;-1.498;2023-03-12T03:09:20;20.95;;;13.70;;
41897;SDS011;27576;53.366;-1.498;2023-03-12T03:11:47;19.60;;;13.10;;
41897;SDS011;27576;53.366;-1.498;2023-03-12T03:14:13;18.40;;;12.75;;
41897;SDS011;27576;53.366;-1.498;2023-03-12T03:16:38;20.40;;;13.52;;
41897;SDS011;27576;53.366;-1.498;2023-03-12T03:19:04;19.73;;;12.77;;
41897;SDS011;27576;53.366;-1.498;2023-03-12T03:21:31;22.38;;;13.73;;
41897;SDS011;27576;53.366;-1.498;2023-03-12T03:23:57;18.90;;;13.25;;
41897;SDS011;27576;53.366;-1.498;2023-03-12T03:26:23;24.10;;;14.18;;
41897;SDS011;27576;53.366;-1.498;2023-03-12T03:28:49;20.45;;;12.82;;
41897;SDS011;27576;53.366;-1.498;2023-03-12T03:31:14;24.95;;;13.20;;
41897;SDS011;27576;53.366;-1.498;2023-03-12T03:33:40;22.40;;;15.20;;
41897;SDS011;27576;53.366;-1.498;2023-03-12T03:36:06;26.70;;;15.30;;
41897;SDS011;27576;53.366;-1.498;2023-03-12T03:38:32;23.58;;;14.95;;
41897;SDS011;27576;53.366;-1.498;2023-03-12T03:40:58;23.05;;;14.68;;
41897;SDS011;27576;53.366;-1.498;2023-03-12T03:43:24;20.58;;;13.15;;
41897;SDS011;27576;53.366;-1.498;2023-03-12T03:45:57;20.35;;;12.95;;
41897;SDS011;27576;53.366;-1.498;2023-03-12T03:48:23;25.60;;;14.70;;
41897;SDS011;27576;53.366;-1.498;2023-03-12T03:50:48;20.55;;;12.95;;
41897;SDS011;27576;53.366;-1.498;2023-03-12T03:53:14;27.63;;;16.00;;
41897;SDS011;27576;53.366;-1.498;2023-03-12T03:55:39;21.27;;;13.75;;
41897;SDS011;27576;53.366;-1.498;2023-03-12T03:58:05;22.50;;;14.05;;
41897;SDS011;27576;53.366;-1.498;2023-03-12T04:00:31;21.85;;;13.93;;
41897;SDS011;27576;53.366;-1.498;2023-03-12T04:02:57;24.15;;;15.13;;
41897;SDS011;27576;53.366;-1.498;2023-03-12T04:05:23;28.13;;;15.07;;
41897;SDS011;27576;53.366;-1.498;2023-03-12T04:07:50;31.85;;;15.73;;
41897;SDS011;27576;53.366;-1.498;2023-03-12T04:10:18;31.80;;;17.60;;
41897;SDS011;27576;53.366;-1.498;2023-03-12T04:12:47;30.83;;;15.68;;
41897;SDS011;27576;53.366;-1.498;2023-03-12T04:15:13;40.83;;;20.02;;
41897;SDS011;27576;53.366;-1.498;2023-03-12T04:17:38;40.85;;;18.25;;
41897;SDS011;27576;53.366;-1.498;2023-03-12T04:20:03;51.03;;;21.02;;
41897;SDS011;27576;53.366;-1.498;2023-03-12T04:22:33;45.90;;;20.73;;
41897;SDS011;27576;53.366;-1.498;2023-03-12T04:24:58;57.78;;;22.80;;
41897;SDS011;27576;53.366;-1.498;2023-03-12T04:27:24;58.22;;;22.65;;
41897;SDS011;27576;53.366;-1.498;2023-03-12T04:29:49;59.08;;;20.73;;
41897;SDS011;27576;53.366;-1.498;2023-03-12T04:32:15;49.85;;;18.83;;
41897;SDS011;27576;53.366;-1.498;2023-03-12T04:34:40;45.08;;;17.23;;
41897;SDS011;27576;53.366;-1.498;2023-03-12T04:37:06;51.17;;;20.33;;
41897;SDS011;27576;53.366;-1.498;2023-03-12T04:39:32;55.30;;;19.83;;
41897;SDS011;27576;53.366;-1.498;2023-03-12T04:41:58;46.83;;;16.38;;
41897;SDS011;27576;53.366;-1.498;2023-03-12T04:44:23;32.35;;;14.80;;
41897;SDS011;27576;53.366;-1.498;2023-03-12T04:46:48;39.78;;;16.00;;
41897;SDS011;27576;53.366;-1.498;2023-03-12T04:49:14;33.88;;;14.45;;
41897;SDS011;27576;53.366;-1.498;2023-03-12T04:51:39;29.15;;;13.55;;
41897;SDS011;27576;53.366;-1.498;2023-03-12T04:54:05;28.33;;;13.60;;
41897;SDS011;27576;53.366;-1.498;2023-03-12T04:56:30;41.17;;;15.25;;
41897;SDS011;27576;53.366;-1.498;2023-03-12T04:58:55;35.85;;;12.95;;
41897;SDS011;27576;53.366;-1.498;2023-03-12T05:01:25;46.03;;;15.07;;
41897;SDS011;27576;53.366;-1.498;2023-03-12T05:03:52;29.70;;;12.65;;
41897;SDS011;27576;53.366;-1.498;2023-03-12T05:06:19;40.72;;;14.07;;
41897;SDS011;27576;53.366;-1.498;2023-03-12T05:08:45;24.30;;;12.52;;
41897;SDS011;27576;53.366;-1.498;2023-03-12T05:11:11;28.48;;;11.85;;
41897;SDS011;27576;53.366;-1.498;2023-03-12T05:13:37;31.48;;;12.48;;
41897;SDS011;27576;53.366;-1.498;2023-03-12T05:16:02;32.63;;;12.73;;
41897;SDS011;27576;53.366;-1.498;2023-03-12T05:18:28;29.65;;;12.73;;
41897;SDS011;27576;53.366;-1.498;2023-03-12T05:21:00;34.63;;;14.60;;
41897;SDS011;27576;53.366;-1.498;2023-03-12T05:23:28;33.38;;;13.13;;
41897;SDS011;27576;53.366;-1.498;2023-03-12T05:25:53;42.55;;;14.13;;
41897;SDS011;27576;53.366;-1.498;2023-03-12T05:28:19;45.55;;;14.63;;
41897;SDS011;27576;53.366;-1.498;2023-03-12T05:30:45;36.22;;;12.15;;
41897;SDS011;27576;53.366;-1.498;2023-03-12T05:33:11;29.35;;;12.98;;
41897;SDS011;27576;53.366;-1.498;2023-03-12T05:35:36;39.15;;;14.20;;
41897;SDS011;27576;53.366;-1.498;2023-03-12T05:38:02;42.83;;;13.93;;
41897;SDS011;27576;53.366;-1.498;2023-03-12T05:40:27;34.63;;;12.63;;
41897;SDS011;27576;53.366;-1.498;2023-03-12T05:42:53;39.63;;;14.15;;
41897;SDS011;27576;53.366;-1.498;2023-03-12T05:45:18;37.58;;;13.93;;
41897;SDS011;27576;53.366;-1.498;2023-03-12T05:47:43;37.13;;;13.80;;
41897;SDS011;27576;53.366;-1.498;2023-03-12T05:50:09;26.80;;;12.23;;
41897;SDS011;27576;53.366;-1.498;2023-03-12T05:52:35;36.08;;;12.80;;
41897;SDS011;27576;53.366;-1.498;2023-03-12T05:55:01;39.40;;;13.75;;
41897;SDS011;27576;53.366;-1.498;2023-03-12T05:57:26;34.25;;;12.50;;
41897;SDS011;27576;53.366;-1.498;2023-03-12T05:59:51;38.10;;;13.02;;
41897;SDS011;27576;53.366;-1.498;2023-03-12T06:02:17;25.15;;;12.35;;
41897;SDS011;27576;53.366;-1.498;2023-03-12T06:04:42;32.40;;;13.45;;
41897;SDS011;27576;53.366;-1.498;2023-03-12T06:07:07;30.63;;;11.80;;
41897;SDS011;27576;53.366;-1.498;2023-03-12T06:09:33;33.97;;;13.75;;
41897;SDS011;27576;53.366;-1.498;2023-03-12T06:11:59;46.95;;;14.30;;
41897;SDS011;27576;53.366;-1.498;2023-03-12T06:14:24;38.63;;;13.73;;
41897;SDS011;27576;53.366;-1.498;2023-03-12T06:16:50;35.38;;;13.68;;
41897;SDS011;27576;53.366;-1.498;2023-03-12T06:19:15;34.97;;;13.05;;
41897;SDS011;27576;53.366;-1.498;2023-03-12T06:21:41;31.63;;;13.20;;
41897;SDS011;27576;53.366;-1.498;2023-03-12T06:24:06;37.67;;;12.77;;
41897;SDS011;27576;53.366;-1.498;2023-03-12T06:26:32;27.70;;;12.02;;
41897;SDS011;27576;53.366;-1.498;2023-03-12T06:28:58;40.05;;;11.95;;
41897;SDS011;27576;53.366;-1.498;2023-03-12T06:31:23;41.80;;;12.15;;
41897;SDS011;27576;53.366;-1.498;2023-03-12T06:33:50;37.70;;;10.30;;
41897;SDS011;27576;53.366;-1.498;2023-03-12T06:36:17;35.10;;;11.52;;
41897;SDS011;27576;53.366;-1.498;2023-03-12T06:38:43;45.03;;;11.35;;
41897;SDS011;27576;53.366;-1.498;2023-03-12T06:41:09;33.45;;;8.98;;
41897;SDS011;27576;53.366;-1.498;2023-03-12T06:43:37;24.27;;;9.93;;
41897;SDS011;27576;53.366;-1.498;2023-03-12T06:46:04;26.00;;;8.52;;
41897;SDS011;27576;53.366;-1.498;2023-03-12T06:48:31;23.48;;;6.90;;
41897;SDS011;27576;53.366;-1.498;2023-03-12T06:51:00;35.90;;;8.80;;
41897;SDS011;27576;53.366;-1.498;2023-03-12T06:53:26;30.50;;;7.40;;
41897;SDS011;27576;53.366;-1.498;2023-03-12T06:55:52;39.47;;;8.02;;
41897;SDS011;27576;53.366;-1.498;2023-03-12T06:58:17;28.20;;;7.60;;
41897;SDS011;27576;53.366;-1.498;2023-03-12T07:00:43;29.67;;;7.43;;
41897;SDS011;27576;53.366;-1.498;2023-03-12T07:03:08;24.25;;;5.78;;
41897;SDS011;27576;53.366;-1.498;2023-03-12T07:05:33;36.13;;;8.50;;
41897;SDS011;27576;53.366;-1.498;2023-03-12T07:07:59;41.15;;;7.57;;
41897;SDS011;27576;53.366;-1.498;2023-03-12T07:10:24;36.60;;;7.28;;
41897;SDS011;27576;53.366;-1.498;2023-03-12T07:12:53;29.25;;;7.20;;
41897;SDS011;27576;53.366;-1.498;2023-03-12T07:15:19;31.58;;;6.60;;
41897;SDS011;27576;53.366;-1.498;2023-03-12T07:17:44;39.40;;;8.73;;
41897;SDS011;27576;53.366;-1.498;2023-03-12T07:20:10;30.45;;;7.75;;
41897;SDS011;27576;53.366;-1.498;2023-03-12T07:22:36;30.92;;;7.63;;
41897;SDS011;27576;53.366;-1.498;2023-03-12T07:25:01;31.88;;;7.85;;
41897;SDS011;27576;53.366;-1.498;2023-03-12T07:27:27;37.65;;;8.00;;
41897;SDS011;27576;53.366;-1.498;2023-03-12T07:29:52;41.50;;;6.97;;
41897;SDS011;27576;53.366;-1.498;2023-03-12T07:32:18;31.77;;;6.47;;
41897;SDS011;27576;53.366;-1.498;2023-03-12T07:34:43;28.83;;;6.05;;
41897;SDS011;27576;53.366;-1.498;2023-03-12T07:37:09;33.50;;;9.20;;
41897;SDS011;27576;53.366;-1.498;2023-03-12T07:39:34;30.23;;;7.93;;
41897;SDS011;27576;53.366;-1.498;2023-03-12T07:42:00;33.25;;;9.50;;
41897;SDS011;27576;53.366;-1.498;2023-03-12T07:44:25;28.75;;;7.47;;
41897;SDS011;27576;53.366;-1.498;2023-03-12T07:46:51;34.80;;;7.55;;
41897;SDS011;27576;53.366;-1.498;2023-03-12T07:49:17;38.63;;;7.97;;
41897;SDS011;27576;53.366;-1.498;2023-03-12T07:51:43;31.00;;;7.30;;
41897;SDS011;27576;53.366;-1.498;2023-03-12T07:54:08;32.80;;;7.28;;
41897;SDS011;27576;53.366;-1.498;2023-03-12T07:56:33;32.33;;;7.60;;
41897;SDS011;27576;53.366;-1.498;2023-03-12T07:58:59;35.35;;;8.07;;
41897;SDS011;27576;53.366;-1.498;2023-03-12T08:01:24;41.30;;;8.63;;
41897;SDS011;27576;53.366;-1.498;2023-03-12T08:03:55;34.20;;;8.73;;
41897;SDS011;27576;53.366;-1.498;2023-03-12T08:06:21;30.55;;;7.85;;
41897;SDS011;27576;53.366;-1.498;2023-03-12T08:08:46;29.95;;;6.78;;
41897;SDS011;27576;53.366;-1.498;2023-03-12T08:11:12;37.40;;;7.65;;
41897;SDS011;27576;53.366;-1.498;2023-03-12T08:13:37;25.60;;;6.70;;
41897;SDS011;27576;53.366;-1.498;2023-03-12T08:16:03;19.90;;;5.53;;
41897;SDS011;27576;53.366;-1.498;2023-03-12T08:18:28;31.35;;;7.13;;
41897;SDS011;27576;53.366;-1.498;2023-03-12T08:20:53;30.42;;;7.15;;
41897;SDS011;27576;53.366;-1.498;2023-03-12T08:23:19;24.33;;;5.70;;
41897;SDS011;27576;53.366;-1.498;2023-03-12T08:25:46;16.70;;;4.65;;
41897;SDS011;27576;53.366;-1.498;2023-03-12T08:28:13;21.65;;;6.80;;
41897;SDS011;27576;53.366;-1.498;2023-03-12T08:30:39;22.23;;;6.53;;
41897;SDS011;27576;53.366;-1.498;2023-03-12T08:33:08;30.88;;;7.28;;
41897;SDS011;27576;53.366;-1.498;2023-03-12T08:35:34;30.70;;;6.90;;
41897;SDS011;27576;53.366;-1.498;2023-03-12T08:37:59;30.35;;;6.65;;
41897;SDS011;27576;53.366;-1.498;2023-03-12T08:40:24;19.80;;;6.40;;
41897;SDS011;27576;53.366;-1.498;2023-03-12T08:42:50;25.80;;;6.82;;
41897;SDS011;27576;53.366;-1.498;2023-03-12T08:45:15;26.48;;;6.88;;
41897;SDS011;27576;53.366;-1.498;2023-03-12T08:47:41;26.92;;;6.80;;
41897;SDS011;27576;53.366;-1.498;2023-03-12T08:50:08;34.67;;;6.90;;
41897;SDS011;27576;53.366;-1.498;2023-03-12T08:52:35;28.63;;;7.60;;
41897;SDS011;27576;53.366;-1.498;2023-03-12T08:55:00;25.20;;;5.45;;
41897;SDS011;27576;53.366;-1.498;2023-03-12T08:57:26;27.35;;;6.25;;
41897;SDS011;27576;53.366;-1.498;2023-03-12T08:59:52;36.35;;;7.28;;
41897;SDS011;27576;53.366;-1.498;2023-03-12T09:02:18;38.00;;;8.55;;
41897;SDS011;27576;53.366;-1.498;2023-03-12T09:04:46;41.13;;;7.82;;
41897;SDS011;27576;53.366;-1.498;2023-03-12T09:07:12;31.23;;;6.45;;
41897;SDS011;27576;53.366;-1.498;2023-03-12T09:09:38;41.25;;;8.07;;
41897;SDS011;27576;53.366;-1.498;2023-03-12T09:12:03;37.58;;;7.20;;
41897;SDS011;27576;53.366;-1.498;2023-03-12T09:14:29;46.90;;;9.50;;
41897;SDS011;27576;53.366;-1.498;2023-03-12T09:16:54;47.38;;;8.73;;
41897;SDS011;27576;53.366;-1.498;2023-03-12T09:19:19;35.72;;;7.55;;
41897;SDS011;27576;53.366;-1.498;2023-03-12T09:21:45;29.27;;;5.85;;
41897;SDS011;27576;53.366;-1.498;2023-03-12T09:24:10;36.83;;;6.75;;
41897;SDS011;27576;53.366;-1.498;2023-03-12T09:26:36;37.08;;;6.95;;
41897;SDS011;27576;53.366;-1.498;2023-03-12T09:29:01;46.20;;;7.88;;
41897;SDS011;27576;53.366;-1.498;2023-03-12T09:31:26;35.65;;;7.07;;
41897;SDS011;27576;53.366;-1.498;2023-03-12T09:33:52;44.08;;;7.55;;
41897;SDS011;27576;53.366;-1.498;2023-03-12T09:36:17;28.90;;;6.47;;
41897;SDS011;27576;53.366;-1.498;2023-03-12T09:38:43;29.33;;;7.03;;
41897;SDS011;27576;53.366;-1.498;2023-03-12T09:41:16;32.83;;;6.45;;
41897;SDS011;27576;53.366;-1.498;2023-03-12T09:43:51;29.05;;;6.18;;
41897;SDS011;27576;53.366;-1.498;2023-03-12T09:46:25;42.65;;;7.63;;
41897;SDS011;27576;53.366;-1.498;2023-03-12T09:48:57;34.13;;;7.15;;
41897;SDS011;27576;53.366;-1.498;2023-03-12T09:51:35;51.03;;;8.70;;
41897;SDS011;27576;53.366;-1.498;2023-03-12T09:54:06;37.63;;;7.18;;
41897;SDS011;27576;53.366;-1.498;2023-03-12T09:56:36;33.88;;;6.15;;
41897;SDS011;27576;53.366;-1.498;2023-03-12T09:59:02;37.67;;;6.93;;
41897;SDS011;27576;53.366;-1.498;2023-03-12T10:07:11;33.42;;;6.32;;
41897;SDS011;27576;53.366;-1.498;2023-03-12T10:12:32;39.65;;;7.60;;
41897;SDS011;27576;53.366;-1.498;2023-03-12T10:25:48;45.15;;;8.48;;
41897;SDS011;27576;53.366;-1.498;2023-03-12T10:31:04;36.05;;;6.80;;
41897;SDS011;27576;53.366;-1.498;2023-03-12T10:33:42;40.40;;;7.35;;
41897;SDS011;27576;53.366;-1.498;2023-03-12T10:36:13;34.58;;;7.47;;
41897;SDS011;27576;53.366;-1.498;2023-03-12T10:38:44;30.17;;;6.53;;
41897;SDS011;27576;53.366;-1.498;2023-03-12T10:41:13;33.40;;;6.82;;
41897;SDS011;27576;53.366;-1.498;2023-03-12T10:43:50;42.67;;;7.38;;
41897;SDS011;27576;53.366;-1.498;2023-03-12T10:48:49;31.50;;;6.00;;
41897;SDS011;27576;53.366;-1.498;2023-03-12T10:51:14;30.13;;;7.30;;
41897;SDS011;27576;53.366;-1.498;2023-03-12T10:53:40;35.08;;;6.75;;
41897;SDS011;27576;53.366;-1.498;2023-03-12T10:56:12;29.52;;;5.85;;
41897;SDS011;27576;53.366;-1.498;2023-03-12T10:58:40;32.55;;;6.82;;
41897;SDS011;27576;53.366;-1.498;2023-03-12T11:01:21;31.05;;;5.75;;
41897;SDS011;27576;53.366;-1.498;2023-03-12T11:03:48;35.17;;;6.05;;
41897;SDS011;27576;53.366;-1.498;2023-03-12T11:06:48;34.15;;;6.22;;
41897;SDS011;27576;53.366;-1.498;2023-03-12T11:09:17;19.88;;;4.60;;
41897;SDS011;27576;53.366;-1.498;2023-03-12T11:11:47;30.77;;;5.93;;
41897;SDS011;27576;53.366;-1.498;2023-03-12T11:14:18;29.77;;;6.07;;
41897;SDS011;27576;53.366;-1.498;2023-03-12T11:16:45;37.10;;;7.13;;
41897;SDS011;27576;53.366;-1.498;2023-03-12T11:19:11;21.33;;;4.72;;
41897;SDS011;27576;53.366;-1.498;2023-03-12T11:21:39;31.55;;;5.82;;
41897;SDS011;27576;53.366;-1.498;2023-03-12T11:24:20;33.78;;;5.75;;
41897;SDS011;27576;53.366;-1.498;2023-03-12T11:26:49;30.55;;;5.38;;
41897;SDS011;27576;53.366;-1.498;2023-03-12T11:29:34;25.60;;;5.53;;
41897;SDS011;27576;53.366;-1.498;2023-03-12T11:34:55;28.25;;;5.40;;
41897;SDS011;27576;53.366;-1.498;2023-03-12T11:51:26;25.13;;;5.47;;
41897;SDS011;27576;53.366;-1.498;2023-03-12T11:57:00;27.98;;;5.85;;
41897;SDS011;27576;53.366;-1.498;2023-03-12T12:27:19;19.50;;;4.75;;
41897;SDS011;27576;53.366;-1.498;2023-03-12T12:29:57;25.17;;;4.80;;
41897;SDS011;27576;53.366;-1.498;2023-03-12T12:35:19;21.40;;;4.80;;
41897;SDS011;27576;53.366;-1.498;2023-03-12T12:37:58;13.45;;;4.03;;
41897;SDS011;27576;53.366;-1.498;2023-03-12T12:43:29;12.63;;;4.00;;
41897;SDS011;27576;53.366;-1.498;2023-03-12T12:49:00;16.38;;;3.90;;
41897;SDS011;27576;53.366;-1.498;2023-03-12T12:51:30;16.48;;;4.32;;
41897;SDS011;27576;53.366;-1.498;2023-03-12T12:54:06;19.17;;;4.22;;
41897;SDS011;27576;53.366;-1.498;2023-03-12T12:59:33;15.75;;;3.85;;
41897;SDS011;27576;53.366;-1.498;2023-03-12T13:02:10;16.73;;;4.07;;
41897;SDS011;27576;53.366;-1.498;2023-03-12T13:04:42;17.65;;;3.80;;
41897;SDS011;27576;53.366;-1.498;2023-03-12T13:15:00;13.13;;;4.05;;
41897;SDS011;27576;53.366;-1.498;2023-03-12T13:20:39;18.40;;;4.13;;
41897;SDS011;27576;53.366;-1.498;2023-03-12T13:26:30;24.45;;;4.82;;
41897;SDS011;27576;53.366;-1.498;2023-03-12T13:31:54;20.90;;;4.47;;
41897;SDS011;27576;53.366;-1.498;2023-03-12T13:36:46;16.08;;;4.03;;
41897;SDS011;27576;53.366;-1.498;2023-03-12T13:52:23;17.45;;;4.68;;
41897;SDS011;27576;53.366;-1.498;2023-03-12T13:57:34;20.70;;;4.65;;
41897;SDS011;27576;53.366;-1.498;2023-03-12T14:00:30;21.50;;;5.05;;
41897;SDS011;27576;53.366;-1.498;2023-03-12T14:14:08;17.90;;;5.28;;
41897;SDS011;27576;53.366;-1.498;2023-03-12T14:16:41;22.08;;;5.15;;
41897;SDS011;27576;53.366;-1.498;2023-03-12T14:19:13;20.15;;;4.78;;
41897;SDS011;27576;53.366;-1.498;2023-03-12T14:21:45;14.95;;;4.57;;
41897;SDS011;27576;53.366;-1.498;2023-03-12T14:26:57;22.55;;;4.63;;
41897;SDS011;27576;53.366;-1.498;2023-03-12T14:29:25;22.63;;;5.03;;
41897;SDS011;27576;53.366;-1.498;2023-03-12T14:32:04;19.20;;;4.35;;
41897;SDS011;27576;53.366;-1.498;2023-03-12T14:34:46;25.05;;;4.97;;
41897;SDS011;27576;53.366;-1.498;2023-03-12T14:37:19;22.98;;;5.32;;
41897;SDS011;27576;53.366;-1.498;2023-03-12T14:39:56;22.77;;;4.63;;
41897;SDS011;27576;53.366;-1.498;2023-03-12T14:42:29;19.92;;;5.43;;
41897;SDS011;27576;53.366;-1.498;2023-03-12T14:47:38;22.70;;;5.32;;
41897;SDS011;27576;53.366;-1.498;2023-03-12T14:50:43;24.38;;;5.88;;
41897;SDS011;27576;53.366;-1.498;2023-03-12T14:56:03;22.67;;;5.43;;
41897;SDS011;27576;53.366;-1.498;2023-03-12T14:58:31;18.08;;;5.38;;
41897;SDS011;27576;53.366;-1.498;2023-03-12T15:00:59;15.98;;;4.38;;
41897;SDS011;27576;53.366;-1.498;2023-03-12T15:03:27;27.10;;;5.85;;
41897;SDS011;27576;53.366;-1.498;2023-03-12T15:05:55;21.05;;;5.32;;
41897;SDS011;27576;53.366;-1.498;2023-03-12T15:08:20;22.48;;;5.25;;
41897;SDS011;27576;53.366;-1.498;2023-03-12T15:10:56;20.45;;;5.03;;
41897;SDS011;27576;53.366;-1.498;2023-03-12T15:13:23;26.33;;;5.30;;
41897;SDS011;27576;53.366;-1.498;2023-03-12T15:15:52;26.92;;;5.78;;
41897;SDS011;27576;53.366;-1.498;2023-03-12T15:18:25;20.83;;;6.07;;
41897;SDS011;27576;53.366;-1.498;2023-03-12T15:20:53;23.13;;;5.80;;
41897;SDS011;27576;53.366;-1.498;2023-03-12T15:23:21;20.17;;;5.68;;
41897;SDS011;27576;53.366;-1.498;2023-03-12T15:26:06;26.48;;;5.82;;
41897;SDS011;27576;53.366;-1.498;2023-03-12T15:28:34;20.83;;;4.65;;
41897;SDS011;27576;53.366;-1.498;2023-03-12T15:31:08;22.25;;;5.30;;
41897;SDS011;27576;53.366;-1.498;2023-03-12T15:33:35;32.25;;;6.22;;
41897;SDS011;27576;53.366;-1.498;2023-03-12T15:36:04;23.27;;;6.15;;
41897;SDS011;27576;53.366;-1.498;2023-03-12T15:38:30;27.27;;;6.80;;
41897;SDS011;27576;53.366;-1.498;2023-03-12T15:40:58;27.63;;;5.88;;
41897;SDS011;27576;53.366;-1.498;2023-03-12T15:43:30;26.27;;;6.72;;
41897;SDS011;27576;53.366;-1.498;2023-03-12T15:45:59;23.92;;;5.45;;
41897;SDS011;27576;53.366;-1.498;2023-03-12T15:48:39;31.83;;;6.03;;
41897;SDS011;27576;53.366;-1.498;2023-03-12T15:53:58;23.58;;;5.78;;
41897;SDS011;27576;53.366;-1.498;2023-03-12T15:56:24;28.23;;;6.63;;
41897;SDS011;27576;53.366;-1.498;2023-03-12T16:01:49;31.88;;;7.65;;
41897;SDS011;27576;53.366;-1.498;2023-03-12T16:04:17;24.50;;;5.82;;
41897;SDS011;27576;53.366;-1.498;2023-03-12T16:06:44;27.40;;;6.53;;
41897;SDS011;27576;53.366;-1.498;2023-03-12T16:09:16;28.70;;;6.72;;
41897;SDS011;27576;53.366;-1.498;2023-03-12T16:11:44;25.15;;;6.25;;
41897;SDS011;27576;53.366;-1.498;2023-03-12T16:14:12;22.73;;;5.78;;
41897;SDS011;27576;53.366;-1.498;2023-03-12T16:16:43;21.13;;;5.00;;
41897;SDS011;27576;53.366;-1.498;2023-03-12T16:19:18;20.15;;;5.40;;
41897;SDS011;27576;53.366;-1.498;2023-03-12T16:21:45;25.50;;;5.78;;
41897;SDS011;27576;53.366;-1.498;2023-03-12T16:24:11;20.50;;;5.00;;
41897;SDS011;27576;53.366;-1.498;2023-03-12T16:26:40;30.70;;;6.05;;
41897;SDS011;27576;53.366;-1.498;2023-03-12T16:29:33;20.40;;;4.75;;
41897;SDS011;27576;53.366;-1.498;2023-03-12T16:32:00;25.08;;;5.78;;
41897;SDS011;27576;53.366;-1.498;2023-03-12T16:34:26;24.50;;;5.38;;
41897;SDS011;27576;53.366;-1.498;2023-03-12T16:36:52;23.35;;;5.40;;
41897;SDS011;27576;53.366;-1.498;2023-03-12T16:39:18;23.08;;;5.07;;
41897;SDS011;27576;53.366;-1.498;2023-03-12T16:41:43;21.52;;;4.90;;
41897;SDS011;27576;53.366;-1.498;2023-03-12T16:44:12;25.05;;;5.57;;
41897;SDS011;27576;53.366;-1.498;2023-03-12T16:46:40;17.73;;;4.25;;
41897;SDS011;27576;53.366;-1.498;2023-03-12T16:49:06;18.70;;;4.40;;
41897;SDS011;27576;53.366;-1.498;2023-03-12T16:51:38;16.70;;;4.63;;